sensor_id;sensor_type;location;lat;lon;timestamp;pressure;altitude;pressure_sealevel;temperature;humidity
18988;BME280;5494;51.796;10.952;2023-05-12T00:00:49;98989.50;;;12.34;100.00
18988;BME280;5494;51.796;10.952;2023-05-12T00:03:17;98997.31;;;12.34;100.00
18988;BME280;5494;51.796;10.952;2023-05-12T00:05:45;98990.16;;;12.38;100.00
18988;BME280;5494;51.796;10.952;2023-05-12T00:08:13;99000.56;;;12.38;100.00
18988;BME280;5494;51.796;10.952;2023-05-12T00:10:42;98998.09;;;12.36;100.00
18988;BME280;5494;51.796;10.952;2023-05-12T00:13:11;99007.38;;;12.40;100.00
18988;BME280;5494;51.796;10.952;2023-05-12T00:15:40;99003.38;;;12.35;100.00
18988;BME280;5494;51.796;10.952;2023-05-12T00:18:08;99007.13;;;12.45;100.00
18988;BME280;5494;51.796;10.952;2023-05-12T00:20:36;99016.38;;;12.50;100.00
18988;BME280;5494;51.796;10.952;2023-05-12T00:23:04;99011.03;;;12.52;100.00
18988;BME280;5494;51.796;10.952;2023-05-12T00:25:33;99010.97;;;12.53;100.00
18988;BME280;5494;51.796;10.952;2023-05-12T00:28:01;99014.72;;;12.63;100.00
18988;BME280;5494;51.796;10.952;2023-05-12T00:30:30;99005.63;;;12.71;100.00
18988;BME280;5494;51.796;10.952;2023-05-12T00:32:59;99007.59;;;12.81;100.00
18988;BME280;5494;51.796;10.952;2023-05-12T00:35:27;99016.13;;;12.69;100.00
18988;BME280;5494;51.796;10.952;2023-05-12T00:37:55;99023.56;;;12.61;100.00
18988;BME280;5494;51.796;10.952;2023-05-12T00:40:23;99014.34;;;12.55;100.00
18988;BME280;5494;51.796;10.952;2023-05-12T00:42:51;99018.78;;;12.53;100.00
18988;BME280;5494;51.796;10.952;2023-05-12T00:45:19;99014.53;;;12.67;100.00
18988;BME280;5494;51.796;10.952;2023-05-12T00:47:50;99019.31;;;12.74;100.00
18988;BME280;5494;51.796;10.952;2023-05-12T00:50:20;99013.03;;;12.62;100.00
18988;BME280;5494;51.796;10.952;2023-05-12T00:52:49;99008.34;;;12.53;100.00
18988;BME280;5494;51.796;10.952;2023-05-12T00:55:17;99012.00;;;12.51;100.00
18988;BME280;5494;51.796;10.952;2023-05-12T00:57:45;99015.53;;;12.50;100.00
18988;BME280;5494;51.796;10.952;2023-05-12T01:00:15;99016.41;;;12.65;100.00
18988;BME280;5494;51.796;10.952;2023-05-12T01:02:46;99024.50;;;12.60;100.00
18988;BME280;5494;51.796;10.952;2023-05-12T01:05:16;99026.97;;;12.47;100.00
18988;BME280;5494;51.796;10.952;2023-05-12T01:07:46;99013.44;;;12.41;100.00
18988;BME280;5494;51.796;10.952;2023-05-12T01:10:18;99008.81;;;12.46;100.00
18988;BME280;5494;51.796;10.952;2023-05-12T01:12:47;99011.75;;;12.40;100.00
18988;BME280;5494;51.796;10.952;2023-05-12T01:15:17;99010.44;;;12.33;100.00
18988;BME280;5494;51.796;10.952;2023-05-12T01:17:56;99010.72;;;12.28;100.00
18988;BME280;5494;51.796;10.952;2023-05-12T01:20:27;99012.47;;;12.28;100.00
18988;BME280;5494;51.796;10.952;2023-05-12T01:22:57;99009.44;;;12.35;100.00
18988;BME280;5494;51.796;10.952;2023-05-12T01:25:31;99014.81;;;12.32;100.00
18988;BME280;5494;51.796;10.952;2023-05-12T01:28:04;99005.56;;;12.27;100.00
18988;BME280;5494;51.796;10.952;2023-05-12T01:30:33;99001.47;;;12.22;100.00
18988;BME280;5494;51.796;10.952;2023-05-12T01:33:01;99009.97;;;12.10;100.00
18988;BME280;5494;51.796;10.952;2023-05-12T01:35:35;99010.22;;;12.21;100.00
18988;BME280;5494;51.796;10.952;2023-05-12T01:38:04;99012.00;;;12.05;100.00
18988;BME280;5494;51.796;10.952;2023-05-12T01:40:36;99012.53;;;11.96;100.00
18988;BME280;5494;51.796;10.952;2023-05-12T01:43:05;99015.56;;;11.89;100.00
18988;BME280;5494;51.796;10.952;2023-05-12T01:45:34;99023.69;;;11.82;100.00
18988;BME280;5494;51.796;10.952;2023-05-12T01:48:02;99030.16;;;12.07;100.00
18988;BME280;5494;51.796;10.952;2023-05-12T01:50:30;99045.72;;;11.93;100.00
18988;BME280;5494;51.796;10.952;2023-05-12T01:53:02;99043.59;;;11.83;100.00
18988;BME280;5494;51.796;10.952;2023-05-12T01:55:31;99040.72;;;11.72;100.00
18988;BME280;5494;51.796;10.952;2023-05-12T01:58:00;99048.03;;;11.66;100.00
18988;BME280;5494;51.796;10.952;2023-05-12T02:00:31;99038.63;;;11.63;100.00
18988;BME280;5494;51.796;10.952;2023-05-12T02:03:00;99041.81;;;11.68;100.00
18988;BME280;5494;51.796;10.952;2023-05-12T02:05:29;99043.81;;;11.63;100.00
18988;BME280;5494;51.796;10.952;2023-05-12T02:07:57;99047.66;;;11.56;100.00
18988;BME280;5494;51.796;10.952;2023-05-12T02:10:25;99049.44;;;11.56;100.00
18988;BME280;5494;51.796;10.952;2023-05-12T02:12:53;99049.09;;;11.62;100.00
18988;BME280;5494;51.796;10.952;2023-05-12T02:15:22;99053.31;;;11.64;100.00
18988;BME280;5494;51.796;10.952;2023-05-12T02:17:52;99057.69;;;11.64;100.00
18988;BME280;5494;51.796;10.952;2023-05-12T02:20:22;99056.25;;;11.58;100.00
18988;BME280;5494;51.796;10.952;2023-05-12T02:22:50;99050.38;;;11.55;100.00
18988;BME280;5494;51.796;10.952;2023-05-12T02:25:18;99049.75;;;11.50;100.00
18988;BME280;5494;51.796;10.952;2023-05-12T02:27:47;99050.78;;;11.47;100.00
18988;BME280;5494;51.796;10.952;2023-05-12T02:30:16;99048.06;;;11.49;100.00
18988;BME280;5494;51.796;10.952;2023-05-12T02:32:45;99053.28;;;11.49;100.00
18988;BME280;5494;51.796;10.952;2023-05-12T02:35:15;99052.63;;;11.45;100.00
18988;BME280;5494;51.796;10.952;2023-05-12T02:37:43;99051.63;;;11.48;100.00
18988;BME280;5494;51.796;10.952;2023-05-12T02:40:11;99050.03;;;11.45;100.00
18988;BME280;5494;51.796;10.952;2023-05-12T02:42:39;99048.91;;;11.49;100.00
18988;BME280;5494;51.796;10.952;2023-05-12T02:45:10;99044.13;;;11.41;100.00
18988;BME280;5494;51.796;10.952;2023-05-12T02:47:38;99044.81;;;11.45;100.00
18988;BME280;5494;51.796;10.952;2023-05-12T02:50:08;99049.25;;;11.43;100.00
18988;BME280;5494;51.796;10.952;2023-05-12T02:52:37;99044.38;;;11.37;100.00
18988;BME280;5494;51.796;10.952;2023-05-12T02:55:07;99049.84;;;11.32;100.00
18988;BME280;5494;51.796;10.952;2023-05-12T02:57:34;99045.63;;;11.30;100.00
18988;BME280;5494;51.796;10.952;2023-05-12T03:00:05;99042.16;;;11.29;100.00
18988;BME280;5494;51.796;10.952;2023-05-12T03:02:37;99047.38;;;11.29;100.00
18988;BME280;5494;51.796;10.952;2023-05-12T03:05:07;99050.06;;;11.28;100.00
18988;BME280;5494;51.796;10.952;2023-05-12T03:07:37;99044.78;;;11.29;100.00
18988;BME280;5494;51.796;10.952;2023-05-12T03:10:07;99047.38;;;11.29;100.00
18988;BME280;5494;51.796;10.952;2023-05-12T03:12:35;99049.06;;;11.30;100.00
18988;BME280;5494;51.796;10.952;2023-05-12T03:15:04;99062.16;;;11.29;100.00
18988;BME280;5494;51.796;10.952;2023-05-12T03:17:32;99053.91;;;11.21;100.00
18988;BME280;5494;51.796;10.952;2023-05-12T03:20:00;99060.84;;;11.20;100.00
18988;BME280;5494;51.796;10.952;2023-05-12T03:22:29;99070.00;;;11.12;100.00
18988;BME280;5494;51.796;10.952;2023-05-12T03:24:58;99059.91;;;11.05;100.00
18988;BME280;5494;51.796;10.952;2023-05-12T03:27:27;99068.69;;;11.03;100.00
18988;BME280;5494;51.796;10.952;2023-05-12T03:29:55;99069.47;;;11.05;100.00
18988;BME280;5494;51.796;10.952;2023-05-12T03:32:23;99066.94;;;11.03;100.00
18988;BME280;5494;51.796;10.952;2023-05-12T03:34:51;99070.22;;;11.07;100.00
18988;BME280;5494;51.796;10.952;2023-05-12T03:37:19;99067.94;;;11.01;100.00
18988;BME280;5494;51.796;10.952;2023-05-12T03:39:48;99064.47;;;11.00;100.00
18988;BME280;5494;51.796;10.952;2023-05-12T03:42:17;99066.88;;;11.05;100.00
18988;BME280;5494;51.796;10.952;2023-05-12T03:44:46;99064.03;;;11.10;100.00
18988;BME280;5494;51.796;10.952;2023-05-12T03:47:14;99068.13;;;11.14;100.00
18988;BME280;5494;51.796;10.952;2023-05-12T03:49:42;99064.41;;;11.19;100.00
18988;BME280;5494;51.796;10.952;2023-05-12T03:52:10;99068.28;;;11.28;100.00
18988;BME280;5494;51.796;10.952;2023-05-12T03:54:38;99076.38;;;11.39;100.00
18988;BME280;5494;51.796;10.952;2023-05-12T03:57:06;99073.78;;;11.39;100.00
18988;BME280;5494;51.796;10.952;2023-05-12T03:59:35;99071.84;;;11.42;100.00
18988;BME280;5494;51.796;10.952;2023-05-12T04:02:04;99071.00;;;11.42;100.00
18988;BME280;5494;51.796;10.952;2023-05-12T04:04:33;99072.47;;;11.48;100.00
18988;BME280;5494;51.796;10.952;2023-05-12T04:07:02;99068.75;;;11.52;100.00
18988;BME280;5494;51.796;10.952;2023-05-12T04:09:31;99064.91;;;11.59;100.00
18988;BME280;5494;51.796;10.952;2023-05-12T04:11:58;99070.47;;;11.68;100.00
18988;BME280;5494;51.796;10.952;2023-05-12T04:14:27;99082.53;;;11.69;100.00
18988;BME280;5494;51.796;10.952;2023-05-12T04:17:10;99078.88;;;11.73;100.00
18988;BME280;5494;51.796;10.952;2023-05-12T04:19:38;99083.94;;;11.76;100.00
18988;BME280;5494;51.796;10.952;2023-05-12T04:22:06;99075.97;;;11.95;100.00
18988;BME280;5494;51.796;10.952;2023-05-12T04:24:36;99083.69;;;11.97;100.00
18988;BME280;5494;51.796;10.952;2023-05-12T04:27:05;99095.78;;;11.98;100.00
18988;BME280;5494;51.796;10.952;2023-05-12T04:29:34;99075.31;;;12.07;100.00
18988;BME280;5494;51.796;10.952;2023-05-12T04:32:03;99083.69;;;12.12;100.00
18988;BME280;5494;51.796;10.952;2023-05-12T04:34:33;99082.19;;;12.08;100.00
18988;BME280;5494;51.796;10.952;2023-05-12T04:37:02;99076.72;;;12.13;100.00
18988;BME280;5494;51.796;10.952;2023-05-12T04:39:30;99081.09;;;12.28;100.00
18988;BME280;5494;51.796;10.952;2023-05-12T04:41:59;99078.06;;;12.36;100.00
18988;BME280;5494;51.796;10.952;2023-05-12T04:44:29;99087.63;;;12.35;100.00
18988;BME280;5494;51.796;10.952;2023-05-12T04:46:57;99090.91;;;12.39;100.00
18988;BME280;5494;51.796;10.952;2023-05-12T04:49:25;99092.44;;;12.43;100.00
18988;BME280;5494;51.796;10.952;2023-05-12T04:51:54;99088.78;;;12.45;100.00
18988;BME280;5494;51.796;10.952;2023-05-12T04:54:22;99091.81;;;12.53;100.00
18988;BME280;5494;51.796;10.952;2023-05-12T04:56:51;99091.56;;;13.18;100.00
18988;BME280;5494;51.796;10.952;2023-05-12T04:59:20;99092.44;;;12.73;100.00
18988;BME280;5494;51.796;10.952;2023-05-12T05:01:51;99097.59;;;12.58;100.00
18988;BME280;5494;51.796;10.952;2023-05-12T05:04:19;99097.41;;;12.77;100.00
18988;BME280;5494;51.796;10.952;2023-05-12T05:06:47;99102.84;;;12.73;100.00
18988;BME280;5494;51.796;10.952;2023-05-12T05:09:17;99110.41;;;12.93;100.00
18988;BME280;5494;51.796;10.952;2023-05-12T05:11:46;99101.13;;;12.87;100.00
18988;BME280;5494;51.796;10.952;2023-05-12T05:14:14;99106.66;;;12.97;100.00
18988;BME280;5494;51.796;10.952;2023-05-12T05:16:43;99111.53;;;13.03;100.00
18988;BME280;5494;51.796;10.952;2023-05-12T05:19:11;99102.84;;;13.18;100.00
18988;BME280;5494;51.796;10.952;2023-05-12T05:21:49;99111.72;;;13.44;100.00
18988;BME280;5494;51.796;10.952;2023-05-12T05:24:19;99114.50;;;13.27;100.00
18988;BME280;5494;51.796;10.952;2023-05-12T05:26:47;99115.16;;;13.30;100.00
18988;BME280;5494;51.796;10.952;2023-05-12T05:29:15;99113.22;;;13.48;100.00
18988;BME280;5494;51.796;10.952;2023-05-12T05:31:43;99111.63;;;13.46;100.00
18988;BME280;5494;51.796;10.952;2023-05-12T05:34:13;99108.72;;;13.50;100.00
18988;BME280;5494;51.796;10.952;2023-05-12T05:36:41;99118.72;;;13.58;100.00
18988;BME280;5494;51.796;10.952;2023-05-12T05:39:09;99122.25;;;13.57;100.00
18988;BME280;5494;51.796;10.952;2023-05-12T05:41:38;99120.94;;;13.64;100.00
18988;BME280;5494;51.796;10.952;2023-05-12T05:44:07;99127.22;;;13.61;100.00
18988;BME280;5494;51.796;10.952;2023-05-12T05:46:35;99133.28;;;13.76;100.00
18988;BME280;5494;51.796;10.952;2023-05-12T05:49:03;99133.47;;;13.87;100.00
18988;BME280;5494;51.796;10.952;2023-05-12T05:51:31;99129.53;;;13.94;100.00
18988;BME280;5494;51.796;10.952;2023-05-12T05:53:59;99138.13;;;14.10;100.00
18988;BME280;5494;51.796;10.952;2023-05-12T05:56:27;99138.75;;;14.14;100.00
18988;BME280;5494;51.796;10.952;2023-05-12T05:58:57;99146.13;;;14.22;100.00
18988;BME280;5494;51.796;10.952;2023-05-12T06:01:28;99144.25;;;14.38;100.00
18988;BME280;5494;51.796;10.952;2023-05-12T06:03:57;99145.53;;;14.45;100.00
18988;BME280;5494;51.796;10.952;2023-05-12T06:06:25;99153.53;;;14.56;100.00
18988;BME280;5494;51.796;10.952;2023-05-12T06:08:55;99153.44;;;14.57;100.00
18988;BME280;5494;51.796;10.952;2023-05-12T06:11:23;99150.03;;;14.70;100.00
18988;BME280;5494;51.796;10.952;2023-05-12T06:13:51;99157.47;;;14.76;100.00
18988;BME280;5494;51.796;10.952;2023-05-12T06:16:21;99157.59;;;14.87;100.00
18988;BME280;5494;51.796;10.952;2023-05-12T06:18:49;99151.72;;;15.10;100.00
18988;BME280;5494;51.796;10.952;2023-05-12T06:21:17;99155.47;;;15.06;100.00
18988;BME280;5494;51.796;10.952;2023-05-12T06:23:45;99154.66;;;15.18;100.00
18988;BME280;5494;51.796;10.952;2023-05-12T06:26:14;99162.00;;;15.13;100.00
18988;BME280;5494;51.796;10.952;2023-05-12T06:28:42;99154.66;;;15.31;100.00
18988;BME280;5494;51.796;10.952;2023-05-12T06:31:10;99160.50;;;15.22;100.00
18988;BME280;5494;51.796;10.952;2023-05-12T06:33:39;99163.28;;;15.46;100.00
18988;BME280;5494;51.796;10.952;2023-05-12T06:36:08;99156.78;;;15.51;100.00
18988;BME280;5494;51.796;10.952;2023-05-12T06:38:38;99160.69;;;15.58;100.00
18988;BME280;5494;51.796;10.952;2023-05-12T06:41:05;99169.50;;;15.70;100.00
18988;BME280;5494;51.796;10.952;2023-05-12T06:43:33;99173.53;;;16.12;100.00
18988;BME280;5494;51.796;10.952;2023-05-12T06:46:02;99167.03;;;16.30;100.00
18988;BME280;5494;51.796;10.952;2023-05-12T06:48:30;99172.63;;;16.49;100.00
18988;BME280;5494;51.796;10.952;2023-05-12T06:51:00;99162.06;;;16.75;100.00
18988;BME280;5494;51.796;10.952;2023-05-12T06:53:28;99174.88;;;16.79;100.00
18988;BME280;5494;51.796;10.952;2023-05-12T06:55:56;99172.72;;;16.84;100.00
18988;BME280;5494;51.796;10.952;2023-05-12T06:58:24;99166.63;;;16.84;100.00
18988;BME280;5494;51.796;10.952;2023-05-12T07:00:52;99172.66;;;16.97;90.65
18988;BME280;5494;51.796;10.952;2023-05-12T07:03:20;99166.56;;;17.20;89.18
18988;BME280;5494;51.796;10.952;2023-05-12T07:05:48;99164.72;;;17.56;87.05
18988;BME280;5494;51.796;10.952;2023-05-12T07:08:18;99163.81;;;17.79;82.33
18988;BME280;5494;51.796;10.952;2023-05-12T07:10:46;99165.97;;;18.07;81.96
18988;BME280;5494;51.796;10.952;2023-05-12T07:13:14;99163.94;;;18.22;78.85
18988;BME280;5494;51.796;10.952;2023-05-12T07:15:42;99176.63;;;17.95;74.42
18988;BME280;5494;51.796;10.952;2023-05-12T07:18:10;99168.72;;;18.28;75.81
18988;BME280;5494;51.796;10.952;2023-05-12T07:20:38;99175.78;;;18.17;69.90
18988;BME280;5494;51.796;10.952;2023-05-12T07:23:06;99178.88;;;18.44;72.15
18988;BME280;5494;51.796;10.952;2023-05-12T07:25:36;99172.16;;;18.51;70.92
18988;BME280;5494;51.796;10.952;2023-05-12T07:28:05;99171.38;;;19.14;64.49
18988;BME280;5494;51.796;10.952;2023-05-12T07:30:33;99167.38;;;19.20;63.71
18988;BME280;5494;51.796;10.952;2023-05-12T07:33:01;99174.66;;;19.27;63.78
18988;BME280;5494;51.796;10.952;2023-05-12T07:35:29;99169.75;;;19.85;59.38
18988;BME280;5494;51.796;10.952;2023-05-12T07:37:58;99168.00;;;19.95;60.33
18988;BME280;5494;51.796;10.952;2023-05-12T07:40:26;99165.50;;;20.24;57.38
18988;BME280;5494;51.796;10.952;2023-05-12T07:42:55;99161.63;;;19.67;51.60
18988;BME280;5494;51.796;10.952;2023-05-12T07:45:23;99164.09;;;20.60;49.34
18988;BME280;5494;51.796;10.952;2023-05-12T07:47:51;99165.75;;;20.71;49.42
18988;BME280;5494;51.796;10.952;2023-05-12T07:50:20;99166.19;;;20.76;49.45
18988;BME280;5494;51.796;10.952;2023-05-12T07:52:48;99166.03;;;19.88;50.25
18988;BME280;5494;51.796;10.952;2023-05-12T07:55:19;99175.34;;;19.92;53.77
18988;BME280;5494;51.796;10.952;2023-05-12T07:57:48;99174.97;;;19.96;53.28
18988;BME280;5494;51.796;10.952;2023-05-12T08:00:18;99178.34;;;20.08;54.87
18988;BME280;5494;51.796;10.952;2023-05-12T08:02:47;99187.25;;;19.45;55.12
18988;BME280;5494;51.796;10.952;2023-05-12T08:05:19;99191.88;;;19.32;57.76
18988;BME280;5494;51.796;10.952;2023-05-12T08:07:47;99185.13;;;19.50;58.96
18988;BME280;5494;51.796;10.952;2023-05-12T08:10:15;99182.94;;;20.36;56.12
18988;BME280;5494;51.796;10.952;2023-05-12T08:12:45;99182.91;;;20.86;54.02
18988;BME280;5494;51.796;10.952;2023-05-12T08:15:13;99196.09;;;19.96;53.25
18988;BME280;5494;51.796;10.952;2023-05-12T08:17:42;99191.84;;;19.43;55.78
18988;BME280;5494;51.796;10.952;2023-05-12T08:20:11;99196.41;;;19.09;55.25
18988;BME280;5494;51.796;10.952;2023-05-12T08:22:41;99200.31;;;19.25;57.82
18988;BME280;5494;51.796;10.952;2023-05-12T08:25:10;99189.66;;;19.89;56.24
18988;BME280;5494;51.796;10.952;2023-05-12T08:27:45;99200.25;;;20.29;54.90
18988;BME280;5494;51.796;10.952;2023-05-12T08:30:14;99203.25;;;20.55;52.25
18988;BME280;5494;51.796;10.952;2023-05-12T08:32:44;99197.00;;;20.16;54.70
18988;BME280;5494;51.796;10.952;2023-05-12T08:35:12;99194.50;;;20.55;55.08
18988;BME280;5494;51.796;10.952;2023-05-12T08:37:40;99193.22;;;21.08;52.49
18988;BME280;5494;51.796;10.952;2023-05-12T08:40:14;99191.25;;;21.10;52.82
18988;BME280;5494;51.796;10.952;2023-05-12T08:42:59;99192.59;;;21.72;50.31
18988;BME280;5494;51.796;10.952;2023-05-12T08:45:36;99197.63;;;20.89;51.83
18988;BME280;5494;51.796;10.952;2023-05-12T08:48:09;99192.91;;;21.11;52.50
18988;BME280;5494;51.796;10.952;2023-05-12T08:50:39;99188.78;;;21.18;52.11
18988;BME280;5494;51.796;10.952;2023-05-12T08:53:10;99188.56;;;21.68;51.48
18988;BME280;5494;51.796;10.952;2023-05-12T08:55:40;99189.09;;;22.55;48.21
18988;BME280;5494;51.796;10.952;2023-05-12T08:58:24;99185.25;;;22.95;48.10
18988;BME280;5494;51.796;10.952;2023-05-12T09:01:10;99192.28;;;22.86;44.78
18988;BME280;5494;51.796;10.952;2023-05-12T09:03:39;99194.94;;;22.59;47.30
18988;BME280;5494;51.796;10.952;2023-05-12T09:06:09;99192.97;;;22.88;45.00
18988;BME280;5494;51.796;10.952;2023-05-12T09:08:44;99186.34;;;23.10;44.27
18988;BME280;5494;51.796;10.952;2023-05-12T09:11:13;99192.22;;;22.14;46.82
18988;BME280;5494;51.796;10.952;2023-05-12T09:13:52;99188.44;;;21.70;48.20
18988;BME280;5494;51.796;10.952;2023-05-12T09:16:24;99188.25;;;21.81;49.81
18988;BME280;5494;51.796;10.952;2023-05-12T09:18:55;99185.53;;;22.47;48.62
18988;BME280;5494;51.796;10.952;2023-05-12T09:21:24;99190.91;;;23.53;44.46
18988;BME280;5494;51.796;10.952;2023-05-12T09:23:55;99181.03;;;23.89;43.48
18988;BME280;5494;51.796;10.952;2023-05-12T09:26:24;99194.41;;;24.05;43.51
18988;BME280;5494;51.796;10.952;2023-05-12T09:28:54;99177.88;;;23.93;43.15
18988;BME280;5494;51.796;10.952;2023-05-12T09:31:24;99181.44;;;24.02;42.67
18988;BME280;5494;51.796;10.952;2023-05-12T09:33:54;99187.94;;;24.08;42.65
18988;BME280;5494;51.796;10.952;2023-05-12T09:36:24;99188.75;;;22.40;42.43
18988;BME280;5494;51.796;10.952;2023-05-12T09:38:59;99183.19;;;21.41;44.01
18988;BME280;5494;51.796;10.952;2023-05-12T09:41:30;99180.75;;;21.76;44.58
18988;BME280;5494;51.796;10.952;2023-05-12T09:43:59;99186.06;;;21.67;44.17
18988;BME280;5494;51.796;10.952;2023-05-12T09:46:27;99185.09;;;22.14;45.44
18988;BME280;5494;51.796;10.952;2023-05-12T09:48:57;99183.88;;;22.09;45.23
18988;BME280;5494;51.796;10.952;2023-05-12T09:51:26;99181.44;;;22.52;41.50
18988;BME280;5494;51.796;10.952;2023-05-12T09:53:54;99190.97;;;22.18;42.66
18988;BME280;5494;51.796;10.952;2023-05-12T09:56:26;99181.25;;;22.36;40.22
18988;BME280;5494;51.796;10.952;2023-05-12T09:58:56;99183.38;;;21.86;41.40
18988;BME280;5494;51.796;10.952;2023-05-12T10:01:25;99184.56;;;21.64;41.48
18988;BME280;5494;51.796;10.952;2023-05-12T10:03:55;99180.13;;;21.16;42.48
18988;BME280;5494;51.796;10.952;2023-05-12T10:06:27;99174.56;;;22.05;41.92
18988;BME280;5494;51.796;10.952;2023-05-12T10:09:05;99170.28;;;22.49;41.19
18988;BME280;5494;51.796;10.952;2023-05-12T10:11:35;99182.63;;;22.13;38.81
18988;BME280;5494;51.796;10.952;2023-05-12T10:14:05;99183.91;;;21.23;40.13
18988;BME280;5494;51.796;10.952;2023-05-12T10:16:35;99173.28;;;21.04;41.00
18988;BME280;5494;51.796;10.952;2023-05-12T10:19:04;99165.66;;;21.30;42.21
18988;BME280;5494;51.796;10.952;2023-05-12T10:21:36;99178.00;;;21.68;42.13
18988;BME280;5494;51.796;10.952;2023-05-12T10:24:05;99169.56;;;21.16;41.96
18988;BME280;5494;51.796;10.952;2023-05-12T10:26:33;99170.84;;;21.78;44.71
18988;BME280;5494;51.796;10.952;2023-05-12T10:29:05;99170.66;;;21.04;40.77
18988;BME280;5494;51.796;10.952;2023-05-12T10:31:35;99164.81;;;21.49;42.09
18988;BME280;5494;51.796;10.952;2023-05-12T10:34:04;99174.63;;;21.76;40.19
18988;BME280;5494;51.796;10.952;2023-05-12T10:36:46;99169.34;;;21.66;41.30
18988;BME280;5494;51.796;10.952;2023-05-12T10:39:15;99153.97;;;21.33;39.87
18988;BME280;5494;51.796;10.952;2023-05-12T10:41:43;99157.72;;;21.40;38.05
18988;BME280;5494;51.796;10.952;2023-05-12T10:44:11;99159.53;;;20.91;37.78
18988;BME280;5494;51.796;10.952;2023-05-12T10:46:40;99165.63;;;20.82;35.98
18988;BME280;5494;51.796;10.952;2023-05-12T10:49:09;99156.03;;;20.91;38.56
18988;BME280;5494;51.796;10.952;2023-05-12T10:51:48;99169.94;;;20.83;35.81
18988;BME280;5494;51.796;10.952;2023-05-12T10:54:24;99162.56;;;20.67;36.68
18988;BME280;5494;51.796;10.952;2023-05-12T10:56:58;99157.53;;;20.55;35.80
18988;BME280;5494;51.796;10.952;2023-05-12T10:59:28;99155.72;;;20.55;36.86
18988;BME280;5494;51.796;10.952;2023-05-12T11:01:59;99151.72;;;20.70;37.46
18988;BME280;5494;51.796;10.952;2023-05-12T11:04:40;99145.03;;;20.57;35.86
18988;BME280;5494;51.796;10.952;2023-05-12T11:07:13;99152.94;;;20.57;36.42
18988;BME280;5494;51.796;10.952;2023-05-12T11:09:45;99144.06;;;20.58;37.07
18988;BME280;5494;51.796;10.952;2023-05-12T11:12:26;99141.38;;;20.48;36.02
18988;BME280;5494;51.796;10.952;2023-05-12T11:14:59;99158.94;;;20.59;37.50
18988;BME280;5494;51.796;10.952;2023-05-12T11:17:28;99156.09;;;20.41;35.21
18988;BME280;5494;51.796;10.952;2023-05-12T11:19:56;99139.34;;;20.21;34.91
18988;BME280;5494;51.796;10.952;2023-05-12T11:22:27;99143.47;;;20.44;35.54
18988;BME280;5494;51.796;10.952;2023-05-12T11:24:55;99151.16;;;20.27;34.71
18988;BME280;5494;51.796;10.952;2023-05-12T11:27:24;99151.09;;;20.38;35.35
18988;BME280;5494;51.796;10.952;2023-05-12T11:29:56;99150.91;;;20.30;34.84
18988;BME280;5494;51.796;10.952;2023-05-12T11:32:25;99147.97;;;20.23;35.73
18988;BME280;5494;51.796;10.952;2023-05-12T11:34:53;99140.81;;;20.35;35.27
18988;BME280;5494;51.796;10.952;2023-05-12T11:37:21;99157.22;;;20.48;35.76
18988;BME280;5494;51.796;10.952;2023-05-12T11:39:51;99152.09;;;20.47;36.26
18988;BME280;5494;51.796;10.952;2023-05-12T11:42:19;99141.13;;;20.61;36.23
18988;BME280;5494;51.796;10.952;2023-05-12T11:44:51;99146.53;;;20.50;37.39
18988;BME280;5494;51.796;10.952;2023-05-12T11:47:21;99147.94;;;20.63;37.78
18988;BME280;5494;51.796;10.952;2023-05-12T11:49:51;99157.84;;;20.80;36.00
18988;BME280;5494;51.796;10.952;2023-05-12T11:52:23;99158.09;;;20.58;35.19
18988;BME280;5494;51.796;10.952;2023-05-12T11:54:57;99160.75;;;20.68;35.40
18988;BME280;5494;51.796;10.952;2023-05-12T11:57:26;99176.13;;;20.43;35.70
18988;BME280;5494;51.796;10.952;2023-05-12T11:59:56;99170.44;;;20.38;35.96
18988;BME280;5494;51.796;10.952;2023-05-12T12:02:26;99163.47;;;20.37;37.41
18988;BME280;5494;51.796;10.952;2023-05-12T12:04:55;99162.91;;;20.34;35.13
18988;BME280;5494;51.796;10.952;2023-05-12T12:07:31;99159.78;;;20.59;34.51
18988;BME280;5494;51.796;10.952;2023-05-12T12:10:11;99151.38;;;20.35;34.71
18988;BME280;5494;51.796;10.952;2023-05-12T12:12:39;99154.75;;;20.47;37.26
18988;BME280;5494;51.796;10.952;2023-05-12T12:15:09;99175.75;;;20.58;35.54
18988;BME280;5494;51.796;10.952;2023-05-12T12:17:37;99161.34;;;20.31;33.79
18988;BME280;5494;51.796;10.952;2023-05-12T12:20:07;99156.06;;;20.31;34.37
18988;BME280;5494;51.796;10.952;2023-05-12T12:22:36;99154.84;;;20.35;35.89
18988;BME280;5494;51.796;10.952;2023-05-12T12:25:07;99159.31;;;20.44;34.86
18988;BME280;5494;51.796;10.952;2023-05-12T12:27:35;99156.56;;;20.46;34.85
18988;BME280;5494;51.796;10.952;2023-05-12T12:30:04;99163.09;;;20.61;34.32
18988;BME280;5494;51.796;10.952;2023-05-12T12:32:32;99163.41;;;20.77;33.85
18988;BME280;5494;51.796;10.952;2023-05-12T12:35:00;99156.34;;;20.88;33.76
18988;BME280;5494;51.796;10.952;2023-05-12T12:37:30;99164.25;;;20.78;33.12
18988;BME280;5494;51.796;10.952;2023-05-12T12:39:58;99159.94;;;20.77;34.27
18988;BME280;5494;51.796;10.952;2023-05-12T12:42:36;99168.53;;;20.60;32.99
18988;BME280;5494;51.796;10.952;2023-05-12T12:45:07;99161.84;;;20.56;34.98
18988;BME280;5494;51.796;10.952;2023-05-12T12:47:36;99163.38;;;20.68;33.27
18988;BME280;5494;51.796;10.952;2023-05-12T12:50:06;99154.22;;;20.72;33.92
18988;BME280;5494;51.796;10.952;2023-05-12T12:52:36;99166.47;;;20.92;36.26
18988;BME280;5494;51.796;10.952;2023-05-12T12:55:06;99157.44;;;20.85;34.40
18988;BME280;5494;51.796;10.952;2023-05-12T12:57:35;99154.94;;;20.74;34.33
18988;BME280;5494;51.796;10.952;2023-05-12T13:00:05;99161.03;;;20.65;33.47
18988;BME280;5494;51.796;10.952;2023-05-12T13:02:34;99180.16;;;20.48;33.25
18988;BME280;5494;51.796;10.952;2023-05-12T13:05:03;99174.22;;;20.55;36.04
18988;BME280;5494;51.796;10.952;2023-05-12T13:07:32;99171.81;;;20.42;34.64